Weather at Gladney Airport

Public forecast

Using degrees Fahrenheit for public forecast. Weather courtesy of forecast.io.

Closest aviation weather report (METAR) to Gladney Airport

Closest report is Lafayette Regional Airport, 13.0 nm (24.0 km) ENE.

2023/09/26 02:53 (retrieved 17 minutes ago)

KLFT 260253Z 31004KT 10SM CLR 28/24 A3000 RMK AO2 SLP158 T02830239 53010

Closest aviation forecast (TAF) to Gladney Airport

Forecast is more than 12 hours old.

Closest forecast is New Orleans NAS JRB/Alvin Callender Field, 115.0 nm (213.0 km) E.

2023/09/25 11:14 Ammendment (retrieved 16 hours ago)

TAF AMD KNBG 2511/2607 VRB05KT 8000 BR SCT025CB BKN120 BKN250 QNH2993INS TEMPO 2513/2516 VRB25G35KT 1600 TSRA BR BKN015CB BKN080 OVC250 BECMG 2516/2518 VRB04KT 9999 VCSH BKN030CB BKN080 BKN250 QNH2992INS TEMPO 2519/2521 VRB25G35KT 3200 TSRA BR BKN020CB BKN080 BKN250 BECMG 2521/2523 09006KT 9999 NSW BKN030 BKN080 BKN250 QNH2995INS TX31/2519Z TN22/2611Z AMD 1106 FN20040